메인 페이지
METAR-TAF:

METAR-TAF

공항 :

Churchill, 매니토바, 캐나다

위도: 58-44N, 경도: 094-04W, 고도: 28m

현재 날씨관측

예보는 10분 전, 14:00시(UTC)에 발표되었습니다.
남서7kt
온도 -22°C
습도 76%
기압 1013 hPa
시정: 4.8km
고도 3000ft 상공 흐림
약한눈

METAR: CYYQ 061400Z 23007KT 3SM -SN OVC030 M22/M25 A2990 RMK SC8 /S01/ SLP132

시각: 08:10 (14:10 UTC)

예보

예보는 2 시간 28분 전, 11:42시(UTC)에 발표되었습니다.
예보 대상 시간: 06일 12시부터 07일 12시까지 (UTC)
남서8kt
시정: 10km
고도 4000ft 상공 흐림
약한눈
일시적
06일 12시부터 06일 13시까지 (UTC)
시정: 6.4km
고도 3000ft 상공 흐림
약한눈
06일 1300시부터 (UTC)
서남서10kt
시정: 10km
고도 1500ft 상공 구름 보통
고도 3000ft 상공 흐림
약한눈
일시적
06일 13시부터 06일 21시까지 (UTC)
시정: 3.2km
고도 1500ft 상공
약한눈
06일 2100시부터 (UTC)
서북서15kt
시정: 10km
고도 2000ft 상공 구름 많음
일시적
06일 22시부터 07일 04시까지 (UTC)
고도 2000ft 상공 구름 보통
07일 0400시부터 (UTC)
10kt
시정: 10km
고도 2000ft 상공 구름 조금

TAF: CYYQ 061142Z 0612/0712 22008KT P6SM -SN OVC040 TEMPO 0612/0613 4SM -SN OVC030 FM061300 24010KT P6SM -SN SCT015 OVC030 TEMPO 0613/0621 2SM -SN VV015 FM062100 30015KT P6SM BKN020 TEMPO 0622/0704 SCT020 FM070400 27010KT P6SM FEW020 RMK NXT FCST BY 061800Z

4,000개 이상의 공항 관측 자료 및 예보 (METAR 및 TAF 보고).

지도상에서 검색 가능한 기상관측소가 노란 점과 빨간 점으로 표시되어 있습니다.

기상관측소 명을 보려면 표시 위로 마우스를 이동하세요.

날씨 관측과 예보를 보려면 클릭하세요.

지도 변경 : 확대하려면 엑스 표시가 있는 녹색 버튼, 축소하려면 빼기 표시가 있는 녹색 버튼, 다음 페이지의 지도를 보려면 녹색 화살표를 클릭하세요.


METAR-TAF: